Time;durP1;ratioP1;P1;durP2;ratioP2;P2;SDS_P1;SDS_P2;PMS_P1;PMS_P2;Temp;Humidity;BMP_temperature;BMP_pressure;BME280_temperature;BME280_humidity;BME280_pressure;Samples;Min_cycle;Max_cycle;Signal;HPM_P1;HPM_P2
2022/07/04 00:01:39;;;;;;;3.85;2.08;;;13.80;58.30;;;;;;5089784;28;20700;-44
2022/07/04 00:04:12;;;;;;;3.70;2.17;;;13.90;58.40;;;;;;5089254;28;20202;-44
2022/07/04 00:06:42;;;;;;;2.97;1.92;;;13.90;58.50;;;;;;5088586;28;20222;-46
2022/07/04 00:09:13;;;;;;;3.72;1.73;;;13.90;58.60;;;;;;5090252;28;20234;-44
2022/07/04 00:11:44;;;;;;;3.22;2.35;;;14.00;59.00;;;;;;5100938;28;20221;-44
2022/07/04 00:14:14;;;;;;;4.80;2.50;;;14.00;59.10;;;;;;5090375;28;20194;-44
2022/07/04 00:16:45;;;;;;;3.13;1.90;;;14.00;59.20;;;;;;5084181;28;20210;-44
2022/07/04 00:19:18;;;;;;;5.68;2.35;;;14.10;59.20;;;;;;5069494;28;20580;-45
2022/07/04 00:21:48;;;;;;;5.25;2.25;;;14.10;59.10;;;;;;5088253;28;20209;-44
2022/07/04 00:24:19;;;;;;;3.72;2.03;;;14.10;59.10;;;;;;5090788;28;20202;-44
2022/07/04 00:26:50;;;;;;;3.75;2.30;;;14.10;59.10;;;;;;5089501;28;20217;-44
2022/07/04 00:29:20;;;;;;;3.35;2.28;;;14.10;59.10;;;;;;5085292;28;20210;-44
2022/07/04 00:31:51;;;;;;;4.47;1.98;;;14.20;59.10;;;;;;5076124;28;20223;-44
2022/07/04 00:34:24;;;;;;;4.32;2.00;;;14.20;59.10;;;;;;5070414;28;20198;-44
2022/07/04 00:36:55;;;;;;;2.90;1.80;;;14.20;59.00;;;;;;5087853;28;20194;-44
2022/07/04 00:39:25;;;;;;;3.78;1.98;;;14.20;59.10;;;;;;5087907;28;20202;-45
2022/07/04 00:41:56;;;;;;;2.88;1.88;;;14.20;59.00;;;;;;5072077;28;20710;-44
2022/07/04 00:44:27;;;;;;;4.57;2.40;;;14.20;59.00;;;;;;5070101;28;20195;-44
2022/07/04 00:46:57;;;;;;;3.55;2.15;;;14.30;59.00;;;;;;5078715;28;20227;-45
2022/07/04 00:49:30;;;;;;;4.05;2.08;;;14.30;59.00;;;;;;5069668;28;20202;-44
2022/07/04 00:52:01;;;;;;;3.80;2.28;;;14.30;59.00;;;;;;5088037;28;20206;-44
2022/07/04 00:54:33;;;;;;;4.18;2.38;;;14.30;58.90;;;;;;5090130;28;20195;-44
2022/07/04 00:57:04;;;;;;;3.45;1.95;;;14.40;59.00;;;;;;5107741;28;20656;-44
2022/07/04 00:59:35;;;;;;;3.40;1.90;;;14.40;59.00;;;;;;5110374;28;20194;-44
2022/07/04 01:02:06;;;;;;;3.45;2.20;;;14.40;59.00;;;;;;5110272;28;20225;-43
2022/07/04 01:04:38;;;;;;;3.53;2.05;;;14.50;59.70;;;;;;5105319;28;20202;-45
2022/07/04 01:07:10;;;;;;;3.25;1.75;;;14.50;59.10;;;;;;5090455;28;20225;-44
2022/07/04 01:09:40;;;;;;;3.00;1.75;;;14.50;59.10;;;;;;5090185;28;20198;-45
2022/07/04 01:12:11;;;;;;;3.58;1.90;;;14.60;59.20;;;;;;5079909;28;20301;-44
2022/07/04 01:14:42;;;;;;;2.50;1.73;;;14.60;59.10;;;;;;5073469;28;20198;-44
2022/07/04 01:17:13;;;;;;;2.70;1.73;;;14.60;59.00;;;;;;5081657;28;20207;-44
2022/07/04 01:19:46;;;;;;;3.40;1.70;;;14.60;59.00;;;;;;5073434;28;20195;-44
2022/07/04 01:22:19;;;;;;;3.72;2.42;;;14.60;58.90;;;;;;5087386;28;20219;-44
2022/07/04 01:24:49;;;;;;;2.78;1.60;;;14.60;58.90;;;;;;5079373;28;20198;-44
2022/07/04 01:27:20;;;;;;;3.38;1.90;;;14.70;58.90;;;;;;5073134;28;20281;-44
2022/07/04 01:29:51;;;;;;;2.38;1.73;;;14.70;58.90;;;;;;5072902;28;20191;-45
2022/07/04 01:32:22;;;;;;;2.72;1.77;;;14.70;58.90;;;;;;5091003;28;20198;-44
2022/07/04 01:34:53;;;;;;;2.28;1.65;;;14.80;59.00;;;;;;5075358;28;20202;-44
2022/07/04 01:37:25;;;;;;;3.65;2.15;;;14.80;58.90;;;;;;5090998;28;20645;-44
2022/07/04 01:39:56;;;;;;;4.65;1.77;;;14.80;58.90;;;;;;5094012;28;20198;-43
2022/07/04 01:42:26;;;;;;;2.00;1.50;;;14.80;58.90;;;;;;5093212;28;20527;-44
2022/07/04 01:44:57;;;;;;;4.03;2.03;;;14.90;58.90;;;;;;5093807;28;20559;-45
2022/07/04 01:47:28;;;;;;;2.55;1.90;;;14.90;58.90;;;;;;5085761;28;20226;-44
2022/07/04 01:49:59;;;;;;;3.03;1.58;;;14.90;58.90;;;;;;5072027;28;20187;-45
2022/07/04 01:52:31;;;;;;;2.40;1.45;;;15.00;58.90;;;;;;5090263;28;20568;-44
2022/07/04 01:55:02;;;;;;;3.05;1.70;;;15.00;58.80;;;;;;5075034;28;20207;-44
2022/07/04 01:57:33;;;;;;;2.90;1.90;;;15.00;58.70;;;;;;5078307;28;20191;-44
2022/07/04 02:02:50;;;;;;;2.63;1.75;;;15.10;58.60;;;;;;5082807;28;20259;-44
2022/07/04 02:05:21;;;;;;;2.88;1.63;;;15.10;58.60;;;;;;5090319;28;20229;-44
2022/07/04 02:07:54;;;;;;;3.08;1.58;;;15.10;58.50;;;;;;5092875;28;20226;-44
2022/07/04 02:10:25;;;;;;;2.10;1.50;;;15.10;58.50;;;;;;5092476;28;20218;-45
2022/07/04 02:13:03;;;;;;;4.32;1.55;;;15.20;58.50;;;;;;5088665;28;20819;-44
2022/07/04 02:15:36;;;;;;;2.30;1.50;;;15.20;58.40;;;;;;5092734;28;20205;-44
2022/07/04 02:18:07;;;;;;;3.60;1.77;;;15.20;58.40;;;;;;5074341;28;20576;-45
2022/07/04 02:20:39;;;;;;;2.92;1.75;;;15.30;58.40;;;;;;5076651;28;20214;-45
2022/07/04 02:23:11;;;;;;;3.55;1.80;;;15.30;58.40;;;;;;5072035;28;20610;-45
2022/07/04 02:25:42;;;;;;;2.35;1.65;;;15.30;58.40;;;;;;5073024;28;20203;-45
2022/07/04 02:28:13;;;;;;;2.92;1.45;;;15.40;58.30;;;;;;5092307;28;20225;-45
2022/07/04 02:30:43;;;;;;;3.30;1.77;;;15.40;58.30;;;;;;5086864;28;20222;-44
2022/07/04 02:33:14;;;;;;;2.25;1.70;;;15.40;58.40;;;;;;5091714;28;20190;-44
2022/07/04 02:35:45;;;;;;;2.72;1.80;;;15.50;58.40;;;;;;5093457;28;20194;-44
2022/07/04 02:38:18;;;;;;;3.58;1.63;;;15.50;58.40;;;;;;5112560;28;20216;-45
2022/07/04 02:40:48;;;;;;;2.80;1.60;;;15.50;58.30;;;;;;5112960;28;20213;-44
2022/07/04 02:43:19;;;;;;;3.35;1.70;;;15.60;58.30;;;;;;5112204;28;20198;-44
2022/07/04 02:45:50;;;;;;;3.22;1.85;;;15.60;58.40;;;;;;5112138;28;20193;-44
2022/07/04 02:48:20;;;;;;;2.72;1.33;;;15.60;58.30;;;;;;5071300;28;20238;-44
2022/07/04 02:50:51;;;;;;;2.72;1.52;;;15.70;58.30;;;;;;5072982;28;20219;-44
2022/07/04 02:53:23;;;;;;;1.83;1.33;;;15.70;58.30;;;;;;5092273;28;20198;-44
2022/07/04 02:55:54;;;;;;;3.05;1.55;;;15.70;58.30;;;;;;5092999;28;20658;-44
2022/07/04 02:58:25;;;;;;;2.53;1.60;;;15.70;58.30;;;;;;5112822;28;20283;-45
2022/07/04 03:00:56;;;;;;;2.78;1.88;;;15.70;58.20;;;;;;5112192;28;20729;-44
2022/07/04 03:03:26;;;;;;;2.53;1.50;;;15.80;58.20;;;;;;5078435;28;20202;-45
2022/07/04 03:05:57;;;;;;;2.13;1.60;;;15.80;58.20;;;;;;5072348;28;20277;-45
2022/07/04 03:08:30;;;;;;;3.08;1.73;;;15.90;58.20;;;;;;5091763;28;20225;-44
2022/07/04 03:11:00;;;;;;;1.92;1.33;;;15.90;58.20;;;;;;5090799;28;20704;-45
2022/07/04 03:13:31;;;;;;;2.67;1.55;;;15.90;58.10;;;;;;5074189;28;20202;-45
2022/07/04 03:16:02;;;;;;;2.70;1.40;;;16.00;58.10;;;;;;5075403;28;20222;-45
2022/07/04 03:18:33;;;;;;;1.85;1.10;;;16.00;58.10;;;;;;5070710;28;20199;-44
2022/07/04 03:21:04;;;;;;;2.08;1.50;;;16.00;58.10;;;;;;5073186;28;20700;-44
2022/07/04 03:23:37;;;;;;;2.30;1.50;;;16.10;58.10;;;;;;5082183;28;20194;-44
2022/07/04 03:26:09;;;;;;;2.33;1.42;;;16.10;58.00;;;;;;5073240;28;20190;-45
2022/07/04 03:28:39;;;;;;;3.75;1.40;;;16.10;58.00;;;;;;5091101;28;20283;-44
2022/07/04 03:31:10;;;;;;;2.45;1.40;;;16.10;58.00;;;;;;5091041;28;20574;-44
2022/07/04 03:33:41;;;;;;;2.13;1.30;;;16.20;58.00;;;;;;5087635;28;20198;-44
2022/07/04 03:36:12;;;;;;;3.10;1.60;;;16.20;58.00;;;;;;5091376;28;20198;-45
2022/07/04 03:38:44;;;;;;;3.00;1.85;;;16.20;58.00;;;;;;5090707;28;20205;-45
2022/07/04 03:41:15;;;;;;;1.60;1.38;;;16.30;58.00;;;;;;5091767;28;20229;-45
2022/07/04 03:43:46;;;;;;;1.67;1.40;;;16.30;58.00;;;;;;5090805;28;20641;-45
2022/07/04 03:46:17;;;;;;;2.45;1.52;;;16.30;58.00;;;;;;5089846;28;20194;-44
2022/07/04 03:48:47;;;;;;;2.13;1.27;;;16.40;58.00;;;;;;5080956;28;20218;-45
2022/07/04 03:51:18;;;;;;;2.33;1.45;;;16.30;58.00;;;;;;5072402;28;20552;-45
2022/07/04 03:53:51;;;;;;;2.33;1.60;;;16.40;57.90;;;;;;5090952;28;20202;-45
2022/07/04 03:56:21;;;;;;;2.25;1.58;;;16.50;58.00;;;;;;5090525;28;20194;-45
2022/07/04 03:58:52;;;;;;;2.03;1.30;;;16.40;57.80;;;;;;5091260;28;20208;-44
2022/07/04 04:01:23;;;;;;;1.73;1.20;;;16.50;57.90;;;;;;5090452;28;20617;-45
2022/07/04 04:06:40;;;;;;;2.15;1.30;;;16.60;57.90;;;;;;5082681;28;20671;-45
2022/07/04 04:09:16;;;;;;;2.25;1.45;;;16.60;57.70;;;;;;5091104;28;20193;-46
2022/07/04 04:11:47;;;;;;;2.05;1.17;;;16.60;57.70;;;;;;5090597;28;20206;-45
2022/07/04 04:14:18;;;;;;;2.13;1.48;;;16.60;57.80;;;;;;5083335;28;20256;-45
2022/07/04 04:16:48;;;;;;;1.80;1.50;;;16.60;57.70;;;;;;5078463;28;20193;-45
2022/07/04 04:19:19;;;;;;;2.10;1.40;;;16.60;57.60;;;;;;5090903;28;20201;-46
2022/07/04 04:21:50;;;;;;;1.83;1.20;;;16.70;57.70;;;;;;5090192;28;20206;-45
2022/07/04 04:24:22;;;;;;;3.78;1.30;;;16.70;57.70;;;;;;5074568;28;20647;-45
2022/07/04 04:26:53;;;;;;;2.42;1.33;;;16.70;57.60;;;;;;5073904;28;20275;-45
2022/07/04 04:29:24;;;;;;;1.92;1.40;;;16.70;57.60;;;;;;5089946;28;20198;-45
2022/07/04 04:31:55;;;;;;;2.08;1.33;;;16.70;57.60;;;;;;5090632;28;20217;-45
2022/07/04 04:34:25;;;;;;;1.90;1.38;;;16.70;57.70;;;;;;5084043;28;20207;-45
2022/07/04 04:36:56;;;;;;;2.53;1.15;;;16.70;57.70;;;;;;5074761;28;20638;-45
2022/07/04 04:39:28;;;;;;;1.42;1.20;;;16.70;57.60;;;;;;5091390;28;20661;-45
2022/07/04 04:41:59;;;;;;;1.42;1.15;;;16.70;57.60;;;;;;5090539;28;20221;-44
2022/07/04 04:44:30;;;;;;;1.70;1.00;;;16.70;57.60;;;;;;5090428;28;20194;-45
2022/07/04 04:47:01;;;;;;;1.80;1.25;;;16.80;57.60;;;;;;5086968;28;20194;-45
2022/07/04 04:49:31;;;;;;;1.35;1.20;;;16.80;58.20;;;;;;5073994;28;20619;-45
2022/07/04 04:52:02;;;;;;;2.40;1.50;;;16.80;57.60;;;;;;5077806;28;20213;-45
2022/07/04 04:54:35;;;;;;;1.92;1.08;;;16.80;57.50;;;;;;5092171;28;20205;-45
2022/07/04 04:57:06;;;;;;;2.90;1.40;;;16.80;57.50;;;;;;5094282;28;20194;-46
2022/07/04 04:59:37;;;;;;;2.10;1.20;;;16.80;57.50;;;;;;5079238;28;20194;-46
2022/07/04 05:02:07;;;;;;;2.03;1.10;;;16.80;57.50;;;;;;5088169;28;20219;-46
2022/07/04 05:04:38;;;;;;;2.15;1.20;;;16.80;57.50;;;;;;5074041;28;20719;-45
2022/07/04 05:07:09;;;;;;;2.75;1.27;;;16.80;57.50;;;;;;5078481;28;20206;-45
2022/07/04 05:09:41;;;;;;;2.03;1.23;;;16.70;57.40;;;;;;5094453;28;20198;-45
2022/07/04 05:12:12;;;;;;;1.42;1.27;;;16.70;57.40;;;;;;5093027;28;20205;-45
2022/07/04 05:14:43;;;;;;;2.10;1.38;;;16.70;57.40;;;;;;5114805;28;20668;-46
2022/07/04 05:17:14;;;;;;;2.55;1.40;;;16.70;57.40;;;;;;5097221;28;20183;-46
2022/07/04 05:19:45;;;;;;;1.60;0.98;;;16.70;57.40;;;;;;5093655;28;20198;-45
2022/07/04 05:22:15;;;;;;;1.98;1.48;;;16.70;57.40;;;;;;5094283;28;20210;-44
2022/07/04 05:24:48;;;;;;;1.80;1.48;;;16.70;57.40;;;;;;5093830;28;20201;-47
2022/07/04 05:27:19;;;;;;;2.90;1.63;;;16.70;57.20;;;;;;5094131;28;20190;-47
2022/07/04 05:29:49;;;;;;;1.75;1.33;;;16.70;57.20;;;;;;5094110;28;20198;-44
2022/07/04 05:32:20;;;;;;;2.25;1.35;;;16.70;57.10;;;;;;5093222;28;20213;-45
2022/07/04 05:34:51;;;;;;;2.72;1.67;;;16.70;57.00;;;;;;5093020;28;20686;-45
2022/07/04 05:37:21;;;;;;;2.25;1.33;;;16.70;56.90;;;;;;5093431;28;20197;-45
2022/07/04 05:39:55;;;;;;;3.03;1.52;;;16.70;56.90;;;;;;5095157;28;20194;-46
2022/07/04 05:42:25;;;;;;;1.85;1.38;;;16.70;56.80;;;;;;5093346;28;20566;-45
2022/07/04 05:44:56;;;;;;;2.60;1.77;;;16.70;56.50;;;;;;5093950;28;20194;-44
2022/07/04 05:47:27;;;;;;;2.20;1.60;;;16.70;56.40;;;;;;5085401;28;20528;-45
2022/07/04 05:49:58;;;;;;;2.55;1.48;;;16.60;56.40;;;;;;5093269;28;20198;-45
2022/07/04 05:52:29;;;;;;;2.53;1.30;;;16.60;56.40;;;;;;5092952;28;20213;-45
2022/07/04 05:55:01;;;;;;;1.45;1.23;;;16.60;56.40;;;;;;5085799;28;20202;-45
2022/07/04 05:57:32;;;;;;;2.70;1.83;;;16.60;56.30;;;;;;5097391;28;20189;-47
2022/07/04 06:00:03;;;;;;;2.00;1.40;;;16.60;56.40;;;;;;5079246;28;20200;-45
2022/07/04 06:02:33;;;;;;;1.52;1.10;;;16.60;56.30;;;;;;5076622;28;20194;-46
2022/07/04 06:05:04;;;;;;;1.75;1.50;;;16.60;56.20;;;;;;5092432;28;20202;-45
2022/07/04 06:07:35;;;;;;;1.83;1.38;;;16.60;56.20;;;;;;5093145;28;20205;-45
2022/07/04 06:10:08;;;;;;;2.33;1.52;;;16.60;56.10;;;;;;5092780;28;20198;-45
2022/07/04 06:12:39;;;;;;;1.60;1.25;;;16.60;56.10;;;;;;5089184;28;20217;-44
2022/07/04 06:15:10;;;;;;;2.10;1.77;;;16.50;56.00;;;;;;5112485;28;20190;-45
2022/07/04 06:17:41;;;;;;;1.75;1.30;;;16.50;56.00;;;;;;5088712;28;20249;-44
2022/07/04 06:20:12;;;;;;;2.47;1.33;;;16.50;55.80;;;;;;5092240;28;20213;-47
2022/07/04 06:22:44;;;;;;;1.73;1.58;;;16.50;55.90;;;;;;5096090;28;20190;-46
2022/07/04 06:25:18;;;;;;;2.78;1.58;;;16.50;55.90;;;;;;5112604;28;20208;-44
2022/07/04 06:27:52;;;;;;;1.95;1.73;;;16.50;55.90;;;;;;5111855;28;20233;-45
2022/07/04 06:30:23;;;;;;;1.73;1.20;;;16.50;55.90;;;;;;5112488;28;20257;-45
2022/07/04 06:32:55;;;;;;;2.17;1.40;;;16.50;56.00;;;;;;5111398;28;20204;-45
2022/07/04 06:38:13;;;;;;;3.30;1.50;;;16.50;56.00;;;;;;5111985;28;20570;-45
2022/07/04 06:40:46;;;;;;;2.10;1.38;;;16.50;56.10;;;;;;5112564;28;20225;-45
2022/07/04 06:43:17;;;;;;;2.97;1.70;;;16.40;56.00;;;;;;5112033;28;20185;-45
2022/07/04 06:45:48;;;;;;;4.03;1.90;;;16.40;55.90;;;;;;5112344;28;20664;-46
2022/07/04 06:48:19;;;;;;;2.35;1.58;;;16.40;55.90;;;;;;5080865;28;20217;-45
2022/07/04 06:50:49;;;;;;;2.53;1.70;;;16.40;55.90;;;;;;5091980;28;20225;-45
2022/07/04 06:53:20;;;;;;;2.47;1.63;;;16.40;55.90;;;;;;5092057;28;20193;-45
2022/07/04 06:55:53;;;;;;;2.63;1.33;;;16.40;55.90;;;;;;5092100;28;20198;-46
2022/07/04 06:58:23;;;;;;;2.95;1.83;;;16.30;55.80;;;;;;5092044;28;20190;-45
2022/07/04 07:00:54;;;;;;;3.00;1.77;;;16.40;56.10;;;;;;5091415;28;20218;-45
2022/07/04 07:03:25;;;;;;;3.67;1.40;;;16.30;55.90;;;;;;5091275;28;20201;-46
2022/07/04 07:05:56;;;;;;;2.72;1.38;;;16.30;56.50;;;;;;5091569;28;20574;-44
2022/07/04 07:08:26;;;;;;;2.78;1.80;;;16.30;55.90;;;;;;5087966;28;20220;-45
2022/07/04 07:11:12;;;;;;;2.85;1.67;;;16.30;55.80;;;;;;5071050;28;20225;-45
2022/07/04 07:13:43;;;;;;;3.10;1.83;;;16.30;55.70;;;;;;5081774;28;20277;-44
2022/07/04 07:16:14;;;;;;;2.17;1.52;;;16.30;55.70;;;;;;5089919;28;20344;-44
2022/07/04 07:18:45;;;;;;;1.63;1.50;;;16.30;55.80;;;;;;5082163;28;20210;-45
2022/07/04 07:21:16;;;;;;;2.70;1.65;;;16.20;55.70;;;;;;5091205;28;20767;-45
2022/07/04 07:23:47;;;;;;;2.22;1.63;;;16.20;55.70;;;;;;5091166;28;20190;-45
2022/07/04 07:26:19;;;;;;;9.35;1.67;;;16.20;55.70;;;;;;5091367;28;20195;-44
2022/07/04 07:28:50;;;;;;;2.78;1.58;;;16.20;55.70;;;;;;5090547;28;20244;-45
2022/07/04 07:31:21;;;;;;;3.55;1.77;;;16.20;55.80;;;;;;5091573;28;20214;-45
2022/07/04 07:33:51;;;;;;;1.40;1.30;;;16.20;55.80;;;;;;5091291;28;20643;-45
2022/07/04 07:36:22;;;;;;;1.88;1.42;;;16.10;55.70;;;;;;5091415;28;20202;-45
2022/07/04 07:38:55;;;;;;;2.58;1.77;;;16.10;55.70;;;;;;5091795;28;20194;-45
2022/07/04 07:41:28;;;;;;;2.03;1.75;;;16.10;55.70;;;;;;5091963;28;20851;-45
2022/07/04 07:43:59;;;;;;;2.13;1.80;;;16.10;55.80;;;;;;5091034;28;20186;-45
2022/07/04 07:46:29;;;;;;;6.90;1.88;;;16.10;55.80;;;;;;5103028;28;20202;-44
2022/07/04 07:49:00;;;;;;;2.60;1.98;;;16.10;55.80;;;;;;5071422;28;20253;-47
2022/07/04 07:51:31;;;;;;;2.63;1.55;;;16.10;55.70;;;;;;5071521;28;20229;-45
2022/07/04 07:54:01;;;;;;;2.22;1.65;;;16.10;55.70;;;;;;5071586;28;20195;-45
2022/07/04 07:56:34;;;;;;;2.55;1.52;;;16.00;55.70;;;;;;5071360;28;20202;-46
2022/07/04 07:59:05;;;;;;;1.77;1.50;;;16.00;55.70;;;;;;5070874;28;20642;-45
2022/07/04 08:01:35;;;;;;;2.33;1.88;;;16.00;55.80;;;;;;5086705;28;20585;-45
2022/07/04 08:07:05;;;;;;;3.47;1.92;;;16.00;55.80;;;;;;5048387;28;20188;-44
2022/07/04 08:09:36;;;;;;;2.33;1.80;;;15.90;55.70;;;;;;5081390;28;20233;-45
2022/07/04 08:12:10;;;;;;;2.58;1.52;;;15.90;55.70;;;;;;5090784;28;20214;-45
2022/07/04 08:14:41;;;;;;;2.25;1.92;;;15.90;55.80;;;;;;5080511;28;20203;-44
2022/07/04 08:17:12;;;;;;;2.33;1.80;;;15.90;55.80;;;;;;5088628;28;20206;-45
2022/07/04 08:19:43;;;;;;;2.20;1.67;;;15.90;55.80;;;;;;5093535;28;20258;-45
2022/07/04 08:22:13;;;;;;;2.30;1.90;;;15.80;55.80;;;;;;5095750;28;20218;-45
2022/07/04 08:24:44;;;;;;;2.85;2.20;;;15.80;55.80;;;;;;5095587;28;20649;-44
2022/07/04 08:27:17;;;;;;;2.42;1.98;;;15.80;55.80;;;;;;5095560;28;20194;-45
2022/07/04 08:29:48;;;;;;;2.53;1.85;;;15.80;55.80;;;;;;5094603;28;20226;-45
2022/07/04 08:32:18;;;;;;;2.92;2.20;;;15.80;55.70;;;;;;5074770;28;20210;-44
2022/07/04 08:34:49;;;;;;;2.05;1.85;;;15.80;55.80;;;;;;5074665;28;20194;-45
2022/07/04 08:37:20;;;;;;;3.15;2.15;;;15.80;55.80;;;;;;5074838;28;20230;-44
2022/07/04 08:39:50;;;;;;;3.25;2.03;;;15.80;56.40;;;;;;5075293;28;20654;-45
2022/07/04 08:42:24;;;;;;;2.85;2.10;;;15.80;56.80;;;;;;5075029;28;20215;-45
2022/07/04 08:44:56;;;;;;;2.30;2.00;;;15.80;56.80;;;;;;5074720;28;20195;-44
2022/07/04 08:47:28;;;;;;;2.80;1.85;;;15.80;56.80;;;;;;5074554;28;20206;-43
2022/07/04 08:50:10;;;;;;;3.28;2.42;;;15.80;56.80;;;;;;5074513;28;20229;-44
2022/07/04 08:52:42;;;;;;;3.17;2.08;;;15.80;56.80;;;;;;5074783;28;20229;-46
2022/07/04 09:00:52;;;;;;;2.72;2.10;;;15.70;56.50;;;;;;5081350;28;20271;-44
2022/07/04 09:03:23;;;;;;;2.13;2.00;;;15.70;56.50;;;;;;5094992;28;20206;-44
2022/07/04 09:05:54;;;;;;;2.50;2.13;;;15.70;56.50;;;;;;5088107;28;20203;-44
2022/07/04 09:08:25;;;;;;;2.88;2.58;;;15.60;56.40;;;;;;5074574;28;20568;-44
2022/07/04 09:10:56;;;;;;;3.38;2.33;;;15.60;56.40;;;;;;5076003;28;20219;-44
2022/07/04 09:13:29;;;;;;;2.75;2.40;;;15.60;56.30;;;;;;5081586;28;20194;-45
2022/07/04 09:16:00;;;;;;;3.85;2.40;;;15.60;56.30;;;;;;5091504;28;20190;-45
2022/07/04 09:18:31;;;;;;;4.75;2.40;;;15.60;56.30;;;;;;5073119;28;20201;-44
2022/07/04 09:21:03;;;;;;;3.08;2.30;;;15.60;56.30;;;;;;5090012;28;20206;-45
2022/07/04 09:23:36;;;;;;;3.60;2.50;;;15.60;56.20;;;;;;5092934;28;20568;-44
2022/07/04 09:26:17;;;;;;;2.92;2.35;;;15.50;56.20;;;;;;5093639;28;20194;-44
2022/07/04 09:28:56;;;;;;;4.22;2.50;;;15.50;56.10;;;;;;5093482;28;20214;-44
2022/07/04 09:31:28;;;;;;;3.53;2.50;;;15.50;56.20;;;;;;5093356;28;20209;-43
2022/07/04 09:34:00;;;;;;;3.72;2.42;;;15.50;56.20;;;;;;5093583;28;20198;-44
2022/07/04 09:36:32;;;;;;;3.28;2.60;;;15.50;56.20;;;;;;5093500;28;20202;-44
2022/07/04 09:39:12;;;;;;;2.85;2.58;;;15.40;56.20;;;;;;5093120;28;20205;-44
2022/07/04 09:41:55;;;;;;;4.65;2.85;;;15.40;56.20;;;;;;5094148;28;20677;-44
2022/07/04 09:44:28;;;;;;;3.13;2.83;;;15.40;56.20;;;;;;5093107;28;20198;-44
2022/07/04 09:46:59;;;;;;;3.72;2.80;;;15.40;56.20;;;;;;5084915;28;20203;-44
2022/07/04 09:49:30;;;;;;;3.70;3.13;;;15.40;56.20;;;;;;5074810;28;20214;-44
2022/07/04 09:52:00;;;;;;;4.57;3.17;;;15.30;56.20;;;;;;5092731;28;20217;-44
2022/07/04 09:54:32;;;;;;;3.40;3.10;;;15.30;56.20;;;;;;5092803;28;20751;-44
2022/07/04 09:57:05;;;;;;;3.90;3.20;;;15.30;56.10;;;;;;5092539;28;20614;-45
2022/07/04 09:59:37;;;;;;;3.97;2.72;;;15.30;56.20;;;;;;5093578;28;20198;-44
2022/07/04 10:02:13;;;;;;;3.10;2.80;;;15.30;56.10;;;;;;5079943;28;20230;-45
2022/07/04 10:04:49;;;;;;;4.40;3.15;;;15.30;56.10;;;;;;5078349;28;20281;-45
2022/07/04 10:07:35;;;;;;;3.22;2.92;;;15.20;56.00;;;;;;5104244;28;20201;-44
2022/07/04 10:10:25;;;;;;;3.45;2.85;;;15.20;56.10;;;;;;5077751;28;20217;-45
2022/07/04 10:12:57;;;;;;;3.53;2.65;;;15.20;56.10;;;;;;5092620;28;20240;-44
2022/07/04 10:15:30;;;;;;;3.33;3.03;;;15.20;56.10;;;;;;5092134;28;20194;-44
2022/07/04 10:18:01;;;;;;;3.58;3.22;;;15.10;56.10;;;;;;5079805;28;20202;-44
2022/07/04 10:20:32;;;;;;;3.53;3.22;;;15.10;56.10;;;;;;5092462;28;20222;-45
2022/07/04 10:23:03;;;;;;;3.00;2.70;;;15.10;56.10;;;;;;5092988;28;20197;-44
2022/07/04 10:25:33;;;;;;;3.05;2.67;;;15.10;56.10;;;;;;5092773;28;20193;-44
2022/07/04 10:28:04;;;;;;;3.90;2.88;;;15.00;56.10;;;;;;5092151;28;20194;-45
2022/07/04 10:30:39;;;;;;;2.88;2.63;;;15.00;56.10;;;;;;5092019;28;20255;-44
2022/07/04 10:33:12;;;;;;;5.90;3.28;;;15.00;56.10;;;;;;5092896;28;20198;-45
2022/07/04 10:35:56;;;;;;;3.53;2.97;;;15.00;56.10;;;;;;5092420;28;20194;-45
2022/07/04 10:38:27;;;;;;;3.72;2.92;;;15.00;56.10;;;;;;5092454;28;20201;-45
2022/07/04 10:40:59;;;;;;;2.97;2.67;;;15.00;56.10;;;;;;5093092;28;20214;-44
2022/07/04 10:44:05;;;;;;;3.08;2.60;;;15.00;56.10;;;;;;5090959;28;20221;-45
2022/07/04 10:46:47;;;;;;;3.63;2.80;;;14.90;56.10;;;;;;5029120;28;20196;-44
2022/07/04 10:49:29;;;;;;;3.08;2.72;;;14.90;56.00;;;;;;5029294;28;20232;-45
2022/07/04 10:52:13;;;;;;;3.08;2.60;;;14.90;56.00;;;;;;5058636;28;20565;-45
2022/07/04 10:54:45;;;;;;;2.90;2.60;;;14.90;56.00;;;;;;5071904;28;20199;-45
2022/07/04 10:57:17;;;;;;;3.10;2.60;;;14.90;56.00;;;;;;5075564;28;20182;-45
2022/07/04 11:00:06;;;;;;;3.00;2.60;;;14.90;56.10;;;;;;5092278;28;20206;-44
2022/07/04 11:02:40;;;;;;;3.83;2.60;;;14.90;56.10;;;;;;5095442;28;20198;-45
2022/07/04 11:05:11;;;;;;;2.95;2.60;;;14.80;56.10;;;;;;5091945;28;20725;-45
2022/07/04 11:08:03;;;;;;;4.25;2.90;;;14.80;56.10;;;;;;5091945;28;20198;-44
2022/07/04 11:10:35;;;;;;;3.92;2.65;;;14.80;56.30;;;;;;5091335;28;20218;-44
2022/07/04 11:13:29;;;;;;;3.92;2.95;;;14.80;56.30;;;;;;5091962;28;20711;-44
2022/07/04 11:16:09;;;;;;;4.20;2.80;;;14.80;56.40;;;;;;5078531;28;20186;-44
2022/07/04 11:18:49;;;;;;;4.10;2.92;;;14.80;56.40;;;;;;5071124;28;20230;-45
2022/07/04 11:21:22;;;;;;;3.90;3.00;;;14.70;56.30;;;;;;5083457;28;20681;-45
2022/07/04 11:23:57;;;;;;;4.05;2.83;;;14.70;56.40;;;;;;5091057;28;20250;-45
2022/07/04 11:26:28;;;;;;;4.68;3.10;;;14.70;56.40;;;;;;5091245;28;20186;-45
2022/07/04 11:28:59;;;;;;;3.78;2.92;;;14.70;56.50;;;;;;5078964;28;20195;-44
2022/07/04 11:31:43;;;;;;;3.83;2.95;;;14.70;56.50;;;;;;5084158;28;20206;-44
2022/07/04 11:34:16;;;;;;;4.95;3.13;;;14.70;56.50;;;;;;5082860;28;20560;-44
2022/07/04 11:36:48;;;;;;;3.05;2.47;;;14.70;56.50;;;;;;5086060;28;20689;-44
2022/07/04 11:39:20;;;;;;;3.83;2.83;;;14.70;56.50;;;;;;5079415;28;20198;-45
2022/07/04 11:47:33;;;;;;;4.82;2.88;;;14.60;56.60;;;;;;5079560;28;20201;-45
2022/07/04 11:50:08;;;;;;;3.40;2.90;;;14.70;57.00;;;;;;5070516;28;20218;-46
2022/07/04 11:52:47;;;;;;;3.83;2.80;;;14.70;57.10;;;;;;5071686;28;20209;-45
2022/07/04 11:55:19;;;;;;;5.35;2.90;;;14.60;57.00;;;;;;5071974;28;20225;-45
2022/07/04 11:57:52;;;;;;;2.97;2.42;;;14.70;57.00;;;;;;5091163;28;20194;-45
2022/07/04 12:00:23;;;;;;;4.60;2.55;;;14.60;56.90;;;;;;5090531;28;20209;-45
2022/07/04 12:02:54;;;;;;;3.15;2.45;;;14.70;56.90;;;;;;5071543;28;20205;-44
2022/07/04 12:05:29;;;;;;;5.20;3.00;;;14.60;56.80;;;;;;5072321;28;20199;-45
2022/07/04 12:08:01;;;;;;;4.20;3.35;;;14.60;56.80;;;;;;5091109;28;20862;-44
2022/07/04 12:10:32;;;;;;;4.50;2.95;;;14.60;56.80;;;;;;5090719;28;20252;-44
2022/07/04 12:13:06;;;;;;;3.35;2.72;;;14.60;56.70;;;;;;5085418;28;20677;-44
2022/07/04 12:15:41;;;;;;;4.70;2.67;;;14.60;56.70;;;;;;5090342;28;20611;-44
2022/07/04 12:18:20;;;;;;;3.42;2.88;;;14.60;56.60;;;;;;5071692;28;20312;-45
2022/07/04 12:20:54;;;;;;;3.45;2.67;;;14.60;56.60;;;;;;5069325;28;20222;-44
2022/07/04 12:23:28;;;;;;;6.85;3.42;;;14.60;56.60;;;;;;5069797;28;20194;-44
2022/07/04 12:25:58;;;;;;;3.83;2.70;;;14.60;56.50;;;;;;5069752;28;20238;-44
2022/07/04 12:28:38;;;;;;;2.72;2.38;;;14.60;56.50;;;;;;5073084;28;20199;-44
2022/07/04 12:31:09;;;;;;;3.08;2.30;;;14.60;56.50;;;;;;5089810;28;20230;-44
2022/07/04 12:33:40;;;;;;;3.25;2.35;;;14.60;56.50;;;;;;5089823;28;20202;-44
2022/07/04 12:36:12;;;;;;;3.28;2.50;;;14.60;57.00;;;;;;5089820;28;20194;-44
2022/07/04 12:38:44;;;;;;;4.05;2.72;;;14.60;56.40;;;;;;5089567;28;20190;-44
2022/07/04 12:41:16;;;;;;;3.42;2.50;;;14.60;56.40;;;;;;5090099;28;20259;-44
2022/07/04 12:43:51;;;;;;;4.05;2.85;;;14.60;56.40;;;;;;5083930;28;20206;-44
2022/07/04 12:46:32;;;;;;;3.85;2.80;;;14.60;56.40;;;;;;5073272;28;20394;-44
2022/07/04 12:49:03;;;;;;;4.82;2.50;;;14.60;56.40;;;;;;5089564;28;20198;-44
2022/07/04 12:51:36;;;;;;;3.08;2.53;;;14.60;56.40;;;;;;5089267;28;20222;-44
2022/07/04 12:54:12;;;;;;;3.25;2.50;;;14.60;57.00;;;;;;5089391;28;20685;-44
2022/07/04 12:56:43;;;;;;;3.90;2.78;;;14.60;56.40;;;;;;5089105;28;20198;-45
2022/07/04 12:59:15;;;;;;;3.90;2.85;;;14.60;56.30;;;;;;5088551;28;20814;-45
2022/07/04 13:01:47;;;;;;;3.58;2.70;;;14.60;56.30;;;;;;5089042;28;20629;-46
2022/07/04 13:04:18;;;;;;;3.25;2.55;;;14.60;56.20;;;;;;5088523;28;20198;-44
2022/07/04 13:06:50;;;;;;;3.35;2.50;;;14.60;56.80;;;;;;5090322;28;20209;-45
2022/07/04 13:09:21;;;;;;;4.57;2.72;;;14.60;56.20;;;;;;5092628;28;20207;-44
2022/07/04 13:14:39;;;;;;;4.32;2.60;;;14.60;56.20;;;;;;5083469;28;20639;-45
2022/07/04 13:17:09;;;;;;;3.75;2.38;;;14.60;56.20;;;;;;5092773;28;20202;-45
2022/07/04 13:19:40;;;;;;;2.42;2.17;;;14.60;56.20;;;;;;5092674;28;20665;-44
2022/07/04 13:22:13;;;;;;;3.92;2.63;;;14.60;56.20;;;;;;5093015;28;20253;-44
2022/07/04 13:24:43;;;;;;;3.25;2.60;;;14.60;56.20;;;;;;5093143;28;20198;-44
2022/07/04 13:27:14;;;;;;;3.85;2.42;;;14.60;56.20;;;;;;5092981;28;20205;-45
2022/07/04 13:29:45;;;;;;;4.90;2.63;;;14.60;56.20;;;;;;5091945;28;20205;-44
2022/07/04 13:32:15;;;;;;;4.20;2.60;;;14.60;56.20;;;;;;5092759;28;20214;-44
2022/07/04 13:34:46;;;;;;;4.82;2.40;;;14.60;56.20;;;;;;5092884;28;20201;-44
2022/07/04 13:37:19;;;;;;;2.58;1.92;;;14.50;56.10;;;;;;5092710;28;20198;-45
2022/07/04 13:39:53;;;;;;;3.95;2.75;;;14.50;56.00;;;;;;5092703;28;20198;-45